Boo Sonier — WDG3281 — position and weather

sailwx.info

Track history (hours):
 
Tides and Currents Weather Stations Pressure Air Temp Water Temp Dewpoint Dewpoint Depression Visibility Wind Speed Wind Dir Waves Ship Positions

Boo Sonier

Owner: LeBeouf Bros. Towing, LLC, Houma, LA. More information available from US FCC via Universal Licensing System and Coast Guard Vessel Documentation Center.

Last reported at 2017-Nov-16 04:58 UTC. Time now 2017-Nov-19 14:23 UTC.
Position N 29°47' W 094°01'.

Length 21 m.

Type: Tug. MMSI: 367524420.

Date/timePositionNaut miles runAvg speedWind from/ knotsBaromVisibWave heightAir tempDewpointWater temp
2017-Nov-16 04:58N 29°47' W 094°01'9 4.7
2017-Nov-16 02:58N 29°54' W 093°54'  
2017-Nov-13 21:57N 29°32' W 094°54'17 0.7
2017-Nov-12 21:27N 29°46' W 095°05'3 5.6
2017-Nov-12 21:00N 29°44' W 095°03'2 4.3
2017-Nov-12 20:27N 29°42' W 095°01'1 2.9
2017-Nov-12 20:00N 29°42' W 095°03'0 0.0
2017-Nov-12 19:28N 29°42' W 095°03'0 0.0
2017-Nov-12 18:58N 29°42' W 095°03'0 0.0
2017-Nov-12 18:28N 29°42' W 095°03'0 0.0
2017-Nov-12 17:58N 29°42' W 095°03'0 0.0
2017-Nov-12 17:25N 29°42' W 095°03'0 0.0
2017-Nov-12 16:58N 29°42' W 095°03'0 0.0
2017-Nov-12 16:10N 29°42' W 095°03'0 0.0
2017-Nov-12 15:58N 29°42' W 095°03'0 0.0
2017-Nov-12 15:16N 29°42' W 095°03'0 0.0
2017-Nov-12 14:52N 29°42' W 095°03'0 0.0
2017-Nov-12 14:28N 29°42' W 095°03'0 0.0
2017-Nov-12 13:58N 29°42' W 095°03'0 0.0
2017-Nov-12 13:28N 29°42' W 095°03'0 0.0
2017-Nov-12 12:58N 29°42' W 095°03'0 0.0
2017-Nov-12 12:25N 29°42' W 095°03'0 0.0
2017-Nov-12 11:58N 29°42' W 095°03'0 0.0
2017-Nov-12 11:28N 29°42' W 095°03'0 0.0
2017-Nov-12 10:58N 29°42' W 095°03'0 0.0
2017-Nov-12 10:28N 29°42' W 095°03'0 0.0
2017-Nov-12 09:58N 29°42' W 095°03'0 0.0
2017-Nov-12 09:28N 29°42' W 095°03'0 0.0
2017-Nov-12 08:58N 29°42' W 095°03'0 0.0
2017-Nov-12 08:28N 29°42' W 095°03'0 0.0
2017-Nov-12 07:55N 29°42' W 095°03'0 0.0
2017-Nov-12 07:25N 29°42' W 095°03'0 0.0
2017-Nov-12 06:58N 29°42' W 095°03'0 0.0
2017-Nov-12 06:22N 29°42' W 095°03'0 0.0
2017-Nov-12 05:58N 29°42' W 095°03'0 0.0
2017-Nov-12 05:19N 29°42' W 095°03'0 0.0
2017-Nov-12 04:58N 29°42' W 095°03'0 0.0
2017-Nov-12 04:25N 29°42' W 095°03'0 0.0
2017-Nov-12 03:58N 29°42' W 095°03'0 0.0
2017-Nov-12 03:25N 29°42' W 095°03'0 0.0
2017-Nov-12 02:52N 29°42' W 095°03'0 0.0
2017-Nov-12 02:28N 29°42' W 095°03'0 0.0
2017-Nov-12 01:58N 29°42' W 095°03'0 0.0
2017-Nov-12 01:28N 29°42' W 095°03'0 0.0
2017-Nov-12 00:55N 29°42' W 095°03'0 0.0
2017-Nov-12 00:25N 29°42' W 095°03'0 0.0
2017-Nov-11 23:49N 29°42' W 095°03'0 0.0
2017-Nov-11 23:25N 29°42' W 095°03'0 0.0
2017-Nov-11 22:52N 29°42' W 095°03'0 0.0
2017-Nov-11 22:19N 29°42' W 095°03'0 0.0
2017-Nov-11 21:58N 29°42' W 095°03'0 0.0
2017-Nov-11 21:28N 29°42' W 095°03'0 0.0
2017-Nov-11 20:58N 29°42' W 095°03'0 0.0
2017-Nov-11 20:25N 29°42' W 095°03'0 0.0
2017-Nov-11 19:52N 29°42' W 095°03'0 0.0
2017-Nov-11 19:13N 29°42' W 095°03'0 0.0
2017-Nov-11 18:55N 29°42' W 095°03'0 0.0
2017-Nov-11 18:28N 29°42' W 095°03'0 0.0
2017-Nov-11 17:52N 29°42' W 095°03'0 0.0
2017-Nov-11 17:04N 29°42' W 095°03'0 0.0
2017-Nov-11 16:43N 29°42' W 095°03'0 0.0
2017-Nov-11 16:25N 29°42' W 095°03'0 0.0
2017-Nov-11 15:52N 29°42' W 095°03'0 0.0
2017-Nov-11 15:13N 29°42' W 095°03'0 0.0
2017-Nov-11 14:55N 29°42' W 095°03'0 0.0
2017-Nov-11 14:28N 29°42' W 095°03'0 0.0
2017-Nov-11 13:58N 29°42' W 095°03'0 0.0
2017-Nov-11 13:28N 29°42' W 095°03'0 0.0
2017-Nov-11 12:58N 29°42' W 095°03'0 0.0
2017-Nov-11 12:28N 29°42' W 095°03'0 0.0
2017-Nov-11 11:58N 29°42' W 095°03'0 0.1
2017-Nov-11 11:26N 29°42' W 095°03'2 0.1
2017-Nov-10 02:10N 29°44' W 095°01'1 4.7
2017-Nov-10 02:00N 29°43' W 095°01'1 1.8
2017-Nov-10 01:13N 29°42' W 095°03'  
2017-Nov-07 17:57N 29°42' W 095°03'1 2.4
2017-Nov-07 17:26N 29°42' W 095°01'1 0.3
2017-Nov-07 12:08N 29°44' W 095°02'0 1.5
2017-Nov-07 11:57N 29°44' W 095°02'  
Track history (hours):
 
Tides and Currents Weather Stations Pressure Air Temp Water Temp Dewpoint Dewpoint Depression Visibility Wind Speed Wind Dir Waves Ship Positions

Boo Sonier

Owner: LeBeouf Bros. Towing, LLC, Houma, LA. More information available from US FCC via Universal Licensing System and Coast Guard Vessel Documentation Center.

Last reported at 2017-Nov-16 04:58 UTC. Time now 2017-Nov-19 14:23 UTC.
Position N 29°47' W 094°01'.

Length 21 m.

Type: Tug. MMSI: 367524420.

Date/timePositionNaut miles runAvg speedWind from/ knotsBaromVisibWave heightAir tempDewpointWater temp
2017-Nov-16 04:58N 29°47' W 094°01'9 4.7
2017-Nov-16 02:58N 29°54' W 093°54'  
2017-Nov-13 21:57N 29°32' W 094°54'17 0.7
2017-Nov-12 21:27N 29°46' W 095°05'3 5.6
2017-Nov-12 21:00N 29°44' W 095°03'2 4.3
2017-Nov-12 20:27N 29°42' W 095°01'1 2.9
2017-Nov-12 20:00N 29°42' W 095°03'0 0.0
2017-Nov-12 19:28N 29°42' W 095°03'0 0.0
2017-Nov-12 18:58N 29°42' W 095°03'0 0.0
2017-Nov-12 18:28N 29°42' W 095°03'0 0.0
2017-Nov-12 17:58N 29°42' W 095°03'0 0.0
2017-Nov-12 17:25N 29°42' W 095°03'0 0.0
2017-Nov-12 16:58N 29°42' W 095°03'0 0.0
2017-Nov-12 16:10N 29°42' W 095°03'0 0.0
2017-Nov-12 15:58N 29°42' W 095°03'0 0.0
2017-Nov-12 15:16N 29°42' W 095°03'0 0.0
2017-Nov-12 14:52N 29°42' W 095°03'0 0.0
2017-Nov-12 14:28N 29°42' W 095°03'0 0.0
2017-Nov-12 13:58N 29°42' W 095°03'0 0.0
2017-Nov-12 13:28N 29°42' W 095°03'0 0.0
2017-Nov-12 12:58N 29°42' W 095°03'0 0.0
2017-Nov-12 12:25N 29°42' W 095°03'0 0.0
2017-Nov-12 11:58N 29°42' W 095°03'0 0.0
2017-Nov-12 11:28N 29°42' W 095°03'0 0.0
2017-Nov-12 10:58N 29°42' W 095°03'0 0.0
2017-Nov-12 10:28N 29°42' W 095°03'0 0.0
2017-Nov-12 09:58N 29°42' W 095°03'0 0.0
2017-Nov-12 09:28N 29°42' W 095°03'0 0.0
2017-Nov-12 08:58N 29°42' W 095°03'0 0.0
2017-Nov-12 08:28N 29°42' W 095°03'0 0.0
2017-Nov-12 07:55N 29°42' W 095°03'0 0.0
2017-Nov-12 07:25N 29°42' W 095°03'0 0.0
2017-Nov-12 06:58N 29°42' W 095°03'0 0.0
2017-Nov-12 06:22N 29°42' W 095°03'0 0.0
2017-Nov-12 05:58N 29°42' W 095°03'0 0.0
2017-Nov-12 05:19N 29°42' W 095°03'0 0.0
2017-Nov-12 04:58N 29°42' W 095°03'0 0.0
2017-Nov-12 04:25N 29°42' W 095°03'0 0.0
2017-Nov-12 03:58N 29°42' W 095°03'0 0.0
2017-Nov-12 03:25N 29°42' W 095°03'0 0.0
2017-Nov-12 02:52N 29°42' W 095°03'0 0.0
2017-Nov-12 02:28N 29°42' W 095°03'0 0.0
2017-Nov-12 01:58N 29°42' W 095°03'0 0.0
2017-Nov-12 01:28N 29°42' W 095°03'0 0.0
2017-Nov-12 00:55N 29°42' W 095°03'0 0.0
2017-Nov-12 00:25N 29°42' W 095°03'0 0.0
2017-Nov-11 23:49N 29°42' W 095°03'0 0.0
2017-Nov-11 23:25N 29°42' W 095°03'0 0.0
2017-Nov-11 22:52N 29°42' W 095°03'0 0.0
2017-Nov-11 22:19N 29°42' W 095°03'0 0.0
2017-Nov-11 21:58N 29°42' W 095°03'0 0.0
2017-Nov-11 21:28N 29°42' W 095°03'0 0.0
2017-Nov-11 20:58N 29°42' W 095°03'0 0.0
2017-Nov-11 20:25N 29°42' W 095°03'0 0.0
2017-Nov-11 19:52N 29°42' W 095°03'0 0.0
2017-Nov-11 19:13N 29°42' W 095°03'0 0.0
2017-Nov-11 18:55N 29°42' W 095°03'0 0.0
2017-Nov-11 18:28N 29°42' W 095°03'0 0.0
2017-Nov-11 17:52N 29°42' W 095°03'0 0.0
2017-Nov-11 17:04N 29°42' W 095°03'0 0.0
2017-Nov-11 16:43N 29°42' W 095°03'0 0.0
2017-Nov-11 16:25N 29°42' W 095°03'0 0.0
2017-Nov-11 15:52N 29°42' W 095°03'0 0.0
2017-Nov-11 15:13N 29°42' W 095°03'0 0.0
2017-Nov-11 14:55N 29°42' W 095°03'0 0.0
2017-Nov-11 14:28N 29°42' W 095°03'0 0.0
2017-Nov-11 13:58N 29°42' W 095°03'0 0.0
2017-Nov-11 13:28N 29°42' W 095°03'0 0.0
2017-Nov-11 12:58N 29°42' W 095°03'0 0.0
2017-Nov-11 12:28N 29°42' W 095°03'0 0.0
2017-Nov-11 11:58N 29°42' W 095°03'0 0.1
2017-Nov-11 11:26N 29°42' W 095°03'2 0.1
2017-Nov-10 02:10N 29°44' W 095°01'1 4.7
2017-Nov-10 02:00N 29°43' W 095°01'1 1.8
2017-Nov-10 01:13N 29°42' W 095°03'  
2017-Nov-07 17:57N 29°42' W 095°03'1 2.4
2017-Nov-07 17:26N 29°42' W 095°01'1 0.3
2017-Nov-07 12:08N 29°44' W 095°02'0 1.5
2017-Nov-07 11:57N 29°44' W 095°02'  

Dump ship's entire track history